Sandpoint, Idaho
Current Conditions -  °F | °C
As of 8:35 AM on Wednesday 22 Oct 2014 (Local Time) from KSZT Reporting Station
Overcast Overcast  
Wind Chill: 46°   Ceiling: 9000
Heat Index: 48°   Visibility: 10mi
Dew Point: 41°   Wind: 5mph
Humidity: 76%   Direction: 30°NNE
Pressure: 29.95"   Gusts: NA
Location:  48.27°N, 116.54°W
Report Text: KSZT 221535Z AUTO 03004KT 10SM OVC090 09/05 A2995 RMK AO2
Loading
Personal Weather Stations






























Interactive Weather Map
Tropical Storm Tracking
New forecast layout! Learn more

10-Day Weather Forecast

Advertisements
Track Severe Weather on mobile